sensor_id;sensor_type;location;lat;lon;timestamp;P1;durP1;ratioP1;P2;durP2;ratioP2
40541;SDS011;49288;52.194;5.676;2023-02-01T00:04:59;14.75;;;2.90;;
40541;SDS011;49288;52.194;5.676;2023-02-01T00:10:03;25.33;;;4.50;;
40541;SDS011;49288;52.194;5.676;2023-02-01T00:15:07;61.92;;;5.88;;
40541;SDS011;49288;52.194;5.676;2023-02-01T00:20:10;23.00;;;4.35;;
40541;SDS011;49288;52.194;5.676;2023-02-01T00:25:13;30.13;;;4.93;;
40541;SDS011;49288;52.194;5.676;2023-02-01T00:30:17;42.92;;;5.32;;
40541;SDS011;49288;52.194;5.676;2023-02-01T00:35:21;16.80;;;3.53;;
40541;SDS011;49288;52.194;5.676;2023-02-01T00:40:23;38.67;;;5.13;;
40541;SDS011;49288;52.194;5.676;2023-02-01T00:45:26;39.17;;;5.15;;
40541;SDS011;49288;52.194;5.676;2023-02-01T00:50:29;44.88;;;5.55;;
40541;SDS011;49288;52.194;5.676;2023-02-01T00:55:31;44.80;;;6.05;;
40541;SDS011;49288;52.194;5.676;2023-02-01T01:00:34;26.25;;;4.40;;
40541;SDS011;49288;52.194;5.676;2023-02-01T01:05:37;18.42;;;3.45;;
40541;SDS011;49288;52.194;5.676;2023-02-01T01:10:40;30.67;;;3.78;;
40541;SDS011;49288;52.194;5.676;2023-02-01T01:15:43;22.48;;;3.35;;
40541;SDS011;49288;52.194;5.676;2023-02-01T01:20:47;16.77;;;3.42;;
40541;SDS011;49288;52.194;5.676;2023-02-01T01:30:54;37.13;;;5.43;;
40541;SDS011;49288;52.194;5.676;2023-02-01T01:35:56;59.10;;;5.78;;
40541;SDS011;49288;52.194;5.676;2023-02-01T01:40:59;24.08;;;3.53;;
40541;SDS011;49288;52.194;5.676;2023-02-01T01:46:03;44.67;;;6.00;;
40541;SDS011;49288;52.194;5.676;2023-02-01T01:51:07;41.53;;;5.18;;
40541;SDS011;49288;52.194;5.676;2023-02-01T01:56:11;37.13;;;4.40;;
40541;SDS011;49288;52.194;5.676;2023-02-01T02:01:15;42.00;;;6.20;;
40541;SDS011;49288;52.194;5.676;2023-02-01T02:06:21;34.15;;;5.00;;
40541;SDS011;49288;52.194;5.676;2023-02-01T02:11:28;38.63;;;4.00;;
40541;SDS011;49288;52.194;5.676;2023-02-01T02:16:39;26.30;;;4.30;;
40541;SDS011;49288;52.194;5.676;2023-02-01T02:43:05;28.92;;;3.42;;
40541;SDS011;49288;52.194;5.676;2023-02-01T02:48:52;40.28;;;5.20;;
40541;SDS011;49288;52.194;5.676;2023-02-01T02:54:18;59.10;;;5.85;;
40541;SDS011;49288;52.194;5.676;2023-02-01T02:59:43;29.50;;;4.55;;
40541;SDS011;49288;52.194;5.676;2023-02-01T03:15:34;28.75;;;4.30;;
40541;SDS011;49288;52.194;5.676;2023-02-01T03:20:40;39.30;;;5.65;;
40541;SDS011;49288;52.194;5.676;2023-02-01T03:25:46;37.97;;;5.32;;
40541;SDS011;49288;52.194;5.676;2023-02-01T03:30:51;30.45;;;4.35;;
40541;SDS011;49288;52.194;5.676;2023-02-01T03:36:33;40.33;;;4.43;;
40541;SDS011;49288;52.194;5.676;2023-02-01T03:41:40;27.80;;;6.15;;
40541;SDS011;49288;52.194;5.676;2023-02-01T03:52:06;40.67;;;4.95;;
40541;SDS011;49288;52.194;5.676;2023-02-01T03:57:13;32.88;;;4.82;;
40541;SDS011;49288;52.194;5.676;2023-02-01T04:02:18;45.70;;;5.45;;
40541;SDS011;49288;52.194;5.676;2023-02-01T04:07:21;24.38;;;4.18;;
40541;SDS011;49288;52.194;5.676;2023-02-01T04:12:24;26.40;;;3.50;;
40541;SDS011;49288;52.194;5.676;2023-02-01T04:17:27;39.47;;;5.22;;
40541;SDS011;49288;52.194;5.676;2023-02-01T04:22:30;36.30;;;4.85;;
40541;SDS011;49288;52.194;5.676;2023-02-01T04:27:33;38.45;;;5.90;;
40541;SDS011;49288;52.194;5.676;2023-02-01T04:32:36;24.73;;;4.03;;
40541;SDS011;49288;52.194;5.676;2023-02-01T04:37:39;23.73;;;4.35;;
40541;SDS011;49288;52.194;5.676;2023-02-01T04:42:43;36.20;;;4.43;;
40541;SDS011;49288;52.194;5.676;2023-02-01T04:47:46;31.90;;;5.23;;
40541;SDS011;49288;52.194;5.676;2023-02-01T04:52:50;39.78;;;5.05;;
40541;SDS011;49288;52.194;5.676;2023-02-01T04:57:53;30.27;;;4.90;;
40541;SDS011;49288;52.194;5.676;2023-02-01T05:02:56;38.10;;;3.65;;
40541;SDS011;49288;52.194;5.676;2023-02-01T05:08:01;31.77;;;4.63;;
40541;SDS011;49288;52.194;5.676;2023-02-01T05:13:04;21.08;;;3.33;;
40541;SDS011;49288;52.194;5.676;2023-02-01T05:18:26;20.35;;;3.50;;
40541;SDS011;49288;52.194;5.676;2023-02-01T05:23:29;29.00;;;4.88;;
40541;SDS011;49288;52.194;5.676;2023-02-01T05:28:32;34.97;;;5.75;;
40541;SDS011;49288;52.194;5.676;2023-02-01T05:33:36;40.67;;;4.40;;
40541;SDS011;49288;52.194;5.676;2023-02-01T05:38:38;47.33;;;7.18;;
40541;SDS011;49288;52.194;5.676;2023-02-01T05:43:41;42.33;;;5.60;;
40541;SDS011;49288;52.194;5.676;2023-02-01T05:48:44;28.10;;;4.35;;
40541;SDS011;49288;52.194;5.676;2023-02-01T05:53:46;30.92;;;6.43;;
40541;SDS011;49288;52.194;5.676;2023-02-01T05:58:49;19.92;;;3.17;;
40541;SDS011;49288;52.194;5.676;2023-02-01T06:03:52;46.45;;;5.07;;
40541;SDS011;49288;52.194;5.676;2023-02-01T06:08:55;30.60;;;4.80;;
40541;SDS011;49288;52.194;5.676;2023-02-01T06:13:58;29.52;;;5.40;;
40541;SDS011;49288;52.194;5.676;2023-02-01T06:19:02;40.23;;;5.40;;
40541;SDS011;49288;52.194;5.676;2023-02-01T06:24:04;37.90;;;5.78;;
40541;SDS011;49288;52.194;5.676;2023-02-01T06:29:09;22.15;;;4.20;;
40541;SDS011;49288;52.194;5.676;2023-02-01T06:34:12;41.88;;;5.55;;
40541;SDS011;49288;52.194;5.676;2023-02-01T06:39:15;45.75;;;5.65;;
40541;SDS011;49288;52.194;5.676;2023-02-01T06:44:18;20.83;;;3.72;;
40541;SDS011;49288;52.194;5.676;2023-02-01T06:49:21;40.75;;;6.20;;
40541;SDS011;49288;52.194;5.676;2023-02-01T06:54:25;35.73;;;6.47;;
40541;SDS011;49288;52.194;5.676;2023-02-01T06:59:28;48.92;;;5.15;;
40541;SDS011;49288;52.194;5.676;2023-02-01T07:04:31;37.13;;;5.07;;
40541;SDS011;49288;52.194;5.676;2023-02-01T07:09:34;31.25;;;4.70;;
40541;SDS011;49288;52.194;5.676;2023-02-01T07:14:36;37.92;;;5.13;;
40541;SDS011;49288;52.194;5.676;2023-02-01T07:19:39;33.25;;;4.40;;
40541;SDS011;49288;52.194;5.676;2023-02-01T07:24:42;38.88;;;5.03;;
40541;SDS011;49288;52.194;5.676;2023-02-01T07:29:45;34.35;;;5.95;;
40541;SDS011;49288;52.194;5.676;2023-02-01T07:34:48;51.33;;;4.90;;
40541;SDS011;49288;52.194;5.676;2023-02-01T07:39:51;30.40;;;4.97;;
40541;SDS011;49288;52.194;5.676;2023-02-01T07:44:54;33.22;;;5.75;;
40541;SDS011;49288;52.194;5.676;2023-02-01T07:49:58;39.20;;;5.57;;
40541;SDS011;49288;52.194;5.676;2023-02-01T07:55:02;56.80;;;5.95;;
40541;SDS011;49288;52.194;5.676;2023-02-01T08:00:06;23.65;;;4.32;;
40541;SDS011;49288;52.194;5.676;2023-02-01T08:05:28;37.38;;;5.68;;
40541;SDS011;49288;52.194;5.676;2023-02-01T08:10:30;40.95;;;5.78;;
40541;SDS011;49288;52.194;5.676;2023-02-01T08:15:33;40.30;;;5.55;;
40541;SDS011;49288;52.194;5.676;2023-02-01T08:20:36;31.00;;;5.05;;
40541;SDS011;49288;52.194;5.676;2023-02-01T08:25:40;45.92;;;5.72;;
40541;SDS011;49288;52.194;5.676;2023-02-01T08:30:43;28.10;;;4.55;;
40541;SDS011;49288;52.194;5.676;2023-02-01T08:35:45;26.60;;;5.00;;
40541;SDS011;49288;52.194;5.676;2023-02-01T08:40:48;37.15;;;5.07;;
40541;SDS011;49288;52.194;5.676;2023-02-01T08:45:53;44.45;;;5.82;;
40541;SDS011;49288;52.194;5.676;2023-02-01T08:51:00;31.63;;;5.13;;
40541;SDS011;49288;52.194;5.676;2023-02-01T08:56:06;34.58;;;5.65;;
40541;SDS011;49288;52.194;5.676;2023-02-01T09:01:09;31.63;;;5.53;;
40541;SDS011;49288;52.194;5.676;2023-02-01T09:06:33;44.42;;;5.50;;
40541;SDS011;49288;52.194;5.676;2023-02-01T09:11:36;35.53;;;5.05;;
40541;SDS011;49288;52.194;5.676;2023-02-01T09:16:38;22.83;;;3.90;;
40541;SDS011;49288;52.194;5.676;2023-02-01T09:21:43;39.25;;;4.88;;
40541;SDS011;49288;52.194;5.676;2023-02-01T09:26:45;42.53;;;5.10;;
40541;SDS011;49288;52.194;5.676;2023-02-01T09:31:48;27.17;;;3.88;;
40541;SDS011;49288;52.194;5.676;2023-02-01T09:37:04;25.95;;;3.95;;
40541;SDS011;49288;52.194;5.676;2023-02-01T09:42:22;27.55;;;3.95;;
40541;SDS011;49288;52.194;5.676;2023-02-01T09:47:34;32.65;;;5.18;;
40541;SDS011;49288;52.194;5.676;2023-02-01T09:52:42;35.33;;;5.07;;
40541;SDS011;49288;52.194;5.676;2023-02-01T09:57:49;25.50;;;4.30;;
40541;SDS011;49288;52.194;5.676;2023-02-01T10:03:00;15.10;;;3.77;;
40541;SDS011;49288;52.194;5.676;2023-02-01T10:13:36;33.88;;;5.07;;
40541;SDS011;49288;52.194;5.676;2023-02-01T10:25:03;33.28;;;5.00;;
40541;SDS011;49288;52.194;5.676;2023-02-01T10:35:16;29.25;;;4.78;;
40541;SDS011;49288;52.194;5.676;2023-02-01T10:40:33;44.40;;;6.57;;
40541;SDS011;49288;52.194;5.676;2023-02-01T10:45:42;18.77;;;3.67;;
40541;SDS011;49288;52.194;5.676;2023-02-01T10:50:53;37.10;;;4.30;;
40541;SDS011;49288;52.194;5.676;2023-02-01T10:55:57;27.88;;;4.57;;
40541;SDS011;49288;52.194;5.676;2023-02-01T11:11:22;33.58;;;4.57;;
40541;SDS011;49288;52.194;5.676;2023-02-01T11:16:29;32.45;;;4.72;;
40541;SDS011;49288;52.194;5.676;2023-02-01T11:21:41;41.70;;;5.22;;
40541;SDS011;49288;52.194;5.676;2023-02-01T11:26:47;25.70;;;5.43;;
40541;SDS011;49288;52.194;5.676;2023-02-01T11:31:51;36.55;;;4.60;;
40541;SDS011;49288;52.194;5.676;2023-02-01T11:36:55;28.35;;;3.78;;
40541;SDS011;49288;52.194;5.676;2023-02-01T11:42:19;47.88;;;5.95;;
40541;SDS011;49288;52.194;5.676;2023-02-01T11:47:26;38.70;;;5.53;;
40541;SDS011;49288;52.194;5.676;2023-02-01T12:30:35;43.15;;;5.00;;
40541;SDS011;49288;52.194;5.676;2023-02-01T12:46:31;30.23;;;4.22;;
40541;SDS011;49288;52.194;5.676;2023-02-01T12:51:48;33.45;;;5.47;;
40541;SDS011;49288;52.194;5.676;2023-02-01T12:56:53;17.17;;;3.20;;
40541;SDS011;49288;52.194;5.676;2023-02-01T13:08:11;31.48;;;4.70;;
40541;SDS011;49288;52.194;5.676;2023-02-01T13:13:19;44.50;;;4.97;;
40541;SDS011;49288;52.194;5.676;2023-02-01T13:18:26;26.52;;;4.30;;
40541;SDS011;49288;52.194;5.676;2023-02-01T13:23:38;35.45;;;4.80;;
40541;SDS011;49288;52.194;5.676;2023-02-01T13:45:18;30.77;;;4.63;;
40541;SDS011;49288;52.194;5.676;2023-02-01T13:50:28;39.80;;;5.05;;
40541;SDS011;49288;52.194;5.676;2023-02-01T13:55:34;31.00;;;4.65;;
40541;SDS011;49288;52.194;5.676;2023-02-01T14:00:39;29.75;;;4.15;;
40541;SDS011;49288;52.194;5.676;2023-02-01T14:11:54;36.33;;;5.35;;
40541;SDS011;49288;52.194;5.676;2023-02-01T14:16:37;26.92;;;4.55;;
40541;SDS011;49288;52.194;5.676;2023-02-01T14:21:47;40.22;;;5.70;;
40541;SDS011;49288;52.194;5.676;2023-02-01T14:26:50;26.80;;;4.13;;
40541;SDS011;49288;52.194;5.676;2023-02-01T14:32:00;36.67;;;4.45;;
40541;SDS011;49288;52.194;5.676;2023-02-01T14:47:33;32.20;;;5.55;;
40541;SDS011;49288;52.194;5.676;2023-02-01T14:52:39;43.15;;;6.78;;
40541;SDS011;49288;52.194;5.676;2023-02-01T14:57:48;36.78;;;5.43;;
40541;SDS011;49288;52.194;5.676;2023-02-01T15:02:53;50.63;;;6.20;;
40541;SDS011;49288;52.194;5.676;2023-02-01T15:08:00;27.77;;;4.90;;
40541;SDS011;49288;52.194;5.676;2023-02-01T15:13:12;38.95;;;6.05;;
40541;SDS011;49288;52.194;5.676;2023-02-01T15:18:30;19.52;;;3.00;;
40541;SDS011;49288;52.194;5.676;2023-02-01T15:23:33;11.48;;;2.65;;
40541;SDS011;49288;52.194;5.676;2023-02-01T15:28:36;7.85;;;2.08;;
40541;SDS011;49288;52.194;5.676;2023-02-01T15:33:38;7.55;;;2.00;;
40541;SDS011;49288;52.194;5.676;2023-02-01T15:38:42;12.30;;;2.20;;
40541;SDS011;49288;52.194;5.676;2023-02-01T15:44:03;11.93;;;2.25;;
40541;SDS011;49288;52.194;5.676;2023-02-01T15:49:25;12.90;;;2.13;;
40541;SDS011;49288;52.194;5.676;2023-02-01T15:54:29;10.65;;;2.72;;
40541;SDS011;49288;52.194;5.676;2023-02-01T15:59:40;24.73;;;4.38;;
40541;SDS011;49288;52.194;5.676;2023-02-01T16:04:47;20.77;;;3.88;;
40541;SDS011;49288;52.194;5.676;2023-02-01T16:09:55;25.65;;;4.85;;
40541;SDS011;49288;52.194;5.676;2023-02-01T16:14:59;26.00;;;5.20;;
40541;SDS011;49288;52.194;5.676;2023-02-01T16:20:02;45.17;;;6.28;;
40541;SDS011;49288;52.194;5.676;2023-02-01T16:25:05;30.08;;;6.00;;
40541;SDS011;49288;52.194;5.676;2023-02-01T16:30:09;48.03;;;7.25;;
40541;SDS011;49288;52.194;5.676;2023-02-01T16:35:17;38.90;;;4.60;;
40541;SDS011;49288;52.194;5.676;2023-02-01T16:40:25;36.08;;;4.88;;
40541;SDS011;49288;52.194;5.676;2023-02-01T16:45:47;46.35;;;7.60;;
40541;SDS011;49288;52.194;5.676;2023-02-01T16:50:52;11.43;;;3.10;;
40541;SDS011;49288;52.194;5.676;2023-02-01T16:56:20;21.35;;;4.13;;
40541;SDS011;49288;52.194;5.676;2023-02-01T17:01:27;14.35;;;3.05;;
40541;SDS011;49288;52.194;5.676;2023-02-01T17:06:30;16.30;;;3.70;;
40541;SDS011;49288;52.194;5.676;2023-02-01T17:11:34;19.65;;;3.20;;
40541;SDS011;49288;52.194;5.676;2023-02-01T17:16:41;22.90;;;3.97;;
40541;SDS011;49288;52.194;5.676;2023-02-01T17:21:47;27.63;;;4.72;;
40541;SDS011;49288;52.194;5.676;2023-02-01T17:26:54;19.55;;;3.58;;
40541;SDS011;49288;52.194;5.676;2023-02-01T17:31:59;35.60;;;6.68;;
40541;SDS011;49288;52.194;5.676;2023-02-01T17:37:05;34.53;;;6.93;;
40541;SDS011;49288;52.194;5.676;2023-02-01T17:42:09;39.75;;;7.07;;
40541;SDS011;49288;52.194;5.676;2023-02-01T17:47:13;40.50;;;6.95;;
40541;SDS011;49288;52.194;5.676;2023-02-01T17:52:17;38.90;;;5.90;;
40541;SDS011;49288;52.194;5.676;2023-02-01T17:57:20;47.63;;;7.35;;
40541;SDS011;49288;52.194;5.676;2023-02-01T18:02:23;64.18;;;7.93;;
40541;SDS011;49288;52.194;5.676;2023-02-01T18:07:26;42.67;;;6.18;;
40541;SDS011;49288;52.194;5.676;2023-02-01T18:12:31;44.45;;;7.03;;
40541;SDS011;49288;52.194;5.676;2023-02-01T18:17:34;43.97;;;7.43;;
40541;SDS011;49288;52.194;5.676;2023-02-01T18:22:37;32.75;;;5.55;;
40541;SDS011;49288;52.194;5.676;2023-02-01T18:27:40;24.23;;;4.75;;
40541;SDS011;49288;52.194;5.676;2023-02-01T18:32:43;26.70;;;3.88;;
40541;SDS011;49288;52.194;5.676;2023-02-01T18:37:46;28.75;;;5.32;;
40541;SDS011;49288;52.194;5.676;2023-02-01T18:42:49;18.60;;;3.90;;
40541;SDS011;49288;52.194;5.676;2023-02-01T18:47:52;14.57;;;3.50;;
40541;SDS011;49288;52.194;5.676;2023-02-01T18:52:57;21.97;;;3.67;;
40541;SDS011;49288;52.194;5.676;2023-02-01T18:58:02;18.55;;;3.55;;
40541;SDS011;49288;52.194;5.676;2023-02-01T19:03:05;17.15;;;4.70;;
40541;SDS011;49288;52.194;5.676;2023-02-01T19:08:08;19.63;;;4.75;;
40541;SDS011;49288;52.194;5.676;2023-02-01T19:13:11;38.60;;;6.10;;
40541;SDS011;49288;52.194;5.676;2023-02-01T19:18:17;15.00;;;5.05;;
40541;SDS011;49288;52.194;5.676;2023-02-01T19:23:21;14.45;;;4.72;;
40541;SDS011;49288;52.194;5.676;2023-02-01T19:28:24;18.73;;;3.88;;
40541;SDS011;49288;52.194;5.676;2023-02-01T19:33:27;30.95;;;6.60;;
40541;SDS011;49288;52.194;5.676;2023-02-01T19:38:31;32.93;;;6.67;;
40541;SDS011;49288;52.194;5.676;2023-02-01T19:43:34;29.50;;;6.60;;
40541;SDS011;49288;52.194;5.676;2023-02-01T19:48:38;29.42;;;7.75;;
40541;SDS011;49288;52.194;5.676;2023-02-01T19:53:40;43.95;;;7.55;;
40541;SDS011;49288;52.194;5.676;2023-02-01T19:58:43;12.20;;;3.25;;
40541;SDS011;49288;52.194;5.676;2023-02-01T20:03:47;7.40;;;2.40;;
40541;SDS011;49288;52.194;5.676;2023-02-01T20:08:50;16.00;;;3.20;;
40541;SDS011;49288;52.194;5.676;2023-02-01T20:13:54;8.50;;;2.42;;
40541;SDS011;49288;52.194;5.676;2023-02-01T20:18:58;19.52;;;2.53;;
40541;SDS011;49288;52.194;5.676;2023-02-01T20:24:02;9.93;;;2.92;;
40541;SDS011;49288;52.194;5.676;2023-02-01T20:29:05;10.45;;;2.30;;
40541;SDS011;49288;52.194;5.676;2023-02-01T20:34:08;12.77;;;2.55;;
40541;SDS011;49288;52.194;5.676;2023-02-01T20:39:11;12.48;;;2.97;;
40541;SDS011;49288;52.194;5.676;2023-02-01T20:44:15;16.75;;;3.55;;
40541;SDS011;49288;52.194;5.676;2023-02-01T20:49:18;15.32;;;3.95;;
40541;SDS011;49288;52.194;5.676;2023-02-01T20:54:21;25.48;;;4.95;;
40541;SDS011;49288;52.194;5.676;2023-02-01T20:59:26;21.95;;;5.53;;
40541;SDS011;49288;52.194;5.676;2023-02-01T21:04:29;23.83;;;5.22;;
40541;SDS011;49288;52.194;5.676;2023-02-01T21:09:32;26.20;;;5.90;;
40541;SDS011;49288;52.194;5.676;2023-02-01T21:14:35;25.80;;;6.28;;
40541;SDS011;49288;52.194;5.676;2023-02-01T21:19:37;30.83;;;5.75;;
40541;SDS011;49288;52.194;5.676;2023-02-01T21:24:47;52.13;;;8.98;;
40541;SDS011;49288;52.194;5.676;2023-02-01T21:29:50;61.95;;;9.27;;
40541;SDS011;49288;52.194;5.676;2023-02-01T21:34:53;67.93;;;10.68;;
40541;SDS011;49288;52.194;5.676;2023-02-01T21:39:56;50.22;;;8.57;;
40541;SDS011;49288;52.194;5.676;2023-02-01T21:44:59;51.53;;;6.70;;
40541;SDS011;49288;52.194;5.676;2023-02-01T21:50:08;30.05;;;5.82;;
40541;SDS011;49288;52.194;5.676;2023-02-01T21:55:15;24.38;;;4.93;;
40541;SDS011;49288;52.194;5.676;2023-02-01T22:00:19;29.73;;;5.60;;
40541;SDS011;49288;52.194;5.676;2023-02-01T22:05:22;28.67;;;6.32;;
40541;SDS011;49288;52.194;5.676;2023-02-01T22:10:25;41.85;;;7.05;;
40541;SDS011;49288;52.194;5.676;2023-02-01T22:15:29;42.72;;;8.30;;
40541;SDS011;49288;52.194;5.676;2023-02-01T22:20:33;45.90;;;9.30;;
40541;SDS011;49288;52.194;5.676;2023-02-01T22:25:36;54.50;;;8.80;;
40541;SDS011;49288;52.194;5.676;2023-02-01T22:30:39;54.78;;;9.00;;
40541;SDS011;49288;52.194;5.676;2023-02-01T22:35:45;55.95;;;9.52;;
40541;SDS011;49288;52.194;5.676;2023-02-01T22:40:53;51.60;;;7.30;;
40541;SDS011;49288;52.194;5.676;2023-02-01T22:45:57;52.10;;;8.02;;
40541;SDS011;49288;52.194;5.676;2023-02-01T22:56:05;44.83;;;7.82;;
40541;SDS011;49288;52.194;5.676;2023-02-01T23:01:12;24.10;;;4.25;;
40541;SDS011;49288;52.194;5.676;2023-02-01T23:06:17;51.80;;;9.23;;
40541;SDS011;49288;52.194;5.676;2023-02-01T23:11:21;37.63;;;8.50;;
40541;SDS011;49288;52.194;5.676;2023-02-01T23:16:25;59.70;;;10.15;;
40541;SDS011;49288;52.194;5.676;2023-02-01T23:21:29;56.28;;;11.25;;
40541;SDS011;49288;52.194;5.676;2023-02-01T23:31:35;50.33;;;9.38;;
40541;SDS011;49288;52.194;5.676;2023-02-01T23:36:38;72.68;;;11.10;;
40541;SDS011;49288;52.194;5.676;2023-02-01T23:41:41;60.80;;;9.93;;
40541;SDS011;49288;52.194;5.676;2023-02-01T23:46:43;74.53;;;11.35;;
40541;SDS011;49288;52.194;5.676;2023-02-01T23:51:48;69.53;;;10.95;;
40541;SDS011;49288;52.194;5.676;2023-02-01T23:56:54;62.75;;;12.02;;
